BWG weather

Bowling Green Warren County Regional Airport
Bowling Green, Kentucky, United States

Public forecast

Using degrees Fahrenheit for public forecast. Weather courtesy of forecast.io.

METAR (pilot weather report)

Retrieved 2019/04/21 05:57 UTC (17 minutes ago):

KBWG 210557Z AUTO 24003KT 3SM BR CLR 05/04 A2996 RMK AO2 T00500039

TAF (pilot weather forecast)

Retrieved 2019/04/21 06:30 UTC (0 seconds ago):

TAF KBWG 210527Z 2106/2206 VRB03KT 2SM BR SKC TEMPO 2106/2110 1/2SM FG FM211100 VRB03KT 4SM BR SKC FM211600 VRB03KT P6SM SKC